createdAt,value
2023-02-14T05:41:07.514Z,0.373
2023-02-14T05:46:07.784Z,1.12
2023-02-14T05:51:07.770Z,2.614
2023-02-14T05:56:07.990Z,5.976
2023-02-14T06:01:07.902Z,14.94
2023-02-14T06:06:08.003Z,38.844
2023-02-14T06:11:08.135Z,91.881
2023-02-14T06:16:08.223Z,189.738
2023-02-14T06:21:08.353Z,342.126
2023-02-14T06:26:08.419Z,528.876
2023-02-14T06:31:08.670Z,755.964
2023-02-14T06:36:08.663Z,1033.848
2023-02-14T06:41:08.752Z,1344.6
2023-02-14T06:43:46.964Z,1517.904
2023-02-14T06:47:32.802Z,1744.992
2023-02-14T06:52:51.190Z,2079.648
2023-02-14T06:57:51.307Z,2330.64
2023-02-14T07:02:51.431Z,2605.536
2023-02-14T07:07:51.489Z,2892.384
2023-02-14T07:12:47.538Z,4254.912
2023-02-14T07:17:47.635Z,4780.8
2023-02-14T07:22:47.762Z,5521.824
2023-02-14T07:27:47.874Z,6071.616
2023-02-14T07:32:48.023Z,6454.08
2023-02-14T07:37:48.073Z,6932.16
2023-02-14T07:42:48.221Z,7362.432
2023-02-14T07:47:48.325Z,8031.744
2023-02-14T07:55:15.972Z,9465.984
2023-02-14T08:00:16.050Z,10135.296
2023-02-14T08:05:16.217Z,10900.224
2023-02-14T08:12:33.494Z,12047.616
2023-02-14T08:16:43.463Z,12812.544
2023-02-14T08:20:02.541Z,13290.624
2023-02-14T08:25:52.676Z,14342.4
2023-02-14T08:29:21.936Z,14916.096
2023-02-14T08:34:17.718Z,15776.64
2023-02-14T08:37:01.004Z,16254.72
2023-02-14T08:42:15.451Z,17115.264
2023-02-14T08:44:58.826Z,17688.96
2023-02-14T08:50:25.194Z,18549.504
2023-02-14T08:56:15.644Z,18645.12
2023-02-14T09:01:15.751Z,19888.128
2023-02-14T09:04:14.426Z,20653.056
2023-02-14T09:06:52.092Z,20844.288
2023-02-14T09:12:17.059Z,21800.448
2023-02-14T09:15:25.900Z,22469.76
2023-02-14T09:17:58.931Z,22756.608
2023-02-14T09:21:33.220Z,22947.84
2023-02-14T09:24:11.329Z,23712.768
2023-02-14T09:29:22.522Z,24095.232
2023-02-14T09:32:46.481Z,24286.464
2023-02-14T09:36:41.105Z,24095.232
2023-02-14T09:41:32.013Z,26198.784
2023-02-14T09:45:26.671Z,26198.784
2023-02-14T09:48:04.644Z,26963.712
2023-02-14T09:50:37.757Z,26963.712
2023-02-14T09:54:06.939Z,27537.408
2023-02-14T09:56:51.512Z,27919.872
2023-02-14T09:59:53.854Z,28493.568
2023-02-14T10:04:44.642Z,29067.264
2023-02-14T10:08:23.903Z,29449.728
2023-02-14T10:11:32.667Z,29832.192
2023-02-14T10:14:26.121Z,30214.656
2023-02-14T10:16:59.213Z,30405.888
2023-02-14T10:19:47.519Z,30597.12
2023-02-14T10:23:42.252Z,30979.584
2023-02-14T10:27:47.092Z,31170.816
2023-02-14T10:31:06.093Z,31553.28
2023-02-14T10:38:49.271Z,32126.976
2023-02-14T10:42:38.932Z,32126.976
2023-02-14T10:46:23.439Z,31362.048
2023-02-14T10:50:28.258Z,33274.368
2023-02-14T10:54:38.188Z,33274.368
2023-02-14T10:59:08.616Z,32509.44
2023-02-14T11:01:41.666Z,33465.6
2023-02-14T11:04:55.471Z,33083.136
2023-02-14T11:13:25.575Z,33465.6
2023-02-14T11:18:25.568Z,34230.528
2023-02-14T11:23:25.699Z,34612.992
2023-02-14T11:25:59.666Z,34804.224
2023-02-14T11:28:47.316Z,34612.992
2023-02-14T11:32:26.531Z,34995.456
2023-02-14T11:37:02.084Z,34804.224
2023-02-14T11:40:21.080Z,35186.688
2023-02-14T11:43:13.299Z,34804.224
2023-02-14T11:45:52.734Z,35377.92
2023-02-14T11:51:39.568Z,34612.992
2023-02-14T11:54:22.820Z,34612.992
2023-02-14T11:58:17.481Z,34230.528
2023-02-14T12:04:46.071Z,33848.064
2023-02-14T12:07:18.158Z,35186.688
2023-02-14T12:12:38.553Z,34995.456
2023-02-14T12:15:37.230Z,34804.224
2023-02-14T12:19:11.521Z,35186.688
2023-02-14T12:22:04.961Z,34421.76
2023-02-14T12:28:25.845Z,34804.224
2023-02-14T12:31:50.128Z,34421.76
2023-02-14T12:37:31.741Z,33083.136
2023-02-14T12:41:21.379Z,33848.064
2023-02-14T12:46:42.660Z,31553.28
2023-02-14T12:49:41.172Z,30788.352
2023-02-14T12:55:28.027Z,32700.672
2023-02-14T12:59:53.257Z,32318.208
2023-02-14T13:04:13.415Z,30405.888
2023-02-14T13:07:12.002Z,30405.888
2023-02-14T13:10:00.367Z,29640.96
2023-02-14T13:12:38.508Z,30597.12
2023-02-14T13:17:49.651Z,30597.12
2023-02-14T13:24:06.083Z,30214.656
2023-02-14T13:29:06.176Z,29449.728
2023-02-14T13:34:06.287Z,28493.568
2023-02-14T13:36:54.740Z,28302.336
2023-02-14T13:39:43.581Z,27728.64
2023-02-14T13:42:57.044Z,27346.176
2023-02-14T13:47:22.312Z,26772.48
2023-02-14T13:53:48.167Z,26007.552
2023-02-14T13:56:56.956Z,25433.856
2023-02-14T13:59:45.397Z,25242.624
2023-02-14T14:05:22.084Z,24382.08
2023-02-14T14:08:00.210Z,23904
2023-02-14T14:13:16.481Z,23139.072
2023-02-14T14:17:26.370Z,22469.76
2023-02-14T14:19:59.477Z,21704.832
2023-02-14T14:23:03.131Z,21035.52
2023-02-14T14:25:51.501Z,20653.056
2023-02-14T14:28:39.904Z,20079.36
2023-02-14T14:33:40.866Z,19314.432
2023-02-14T14:38:16.364Z,18549.504
2023-02-14T14:41:30.262Z,17880.192
2023-02-14T14:45:55.578Z,17115.264
2023-02-14T14:51:36.082Z,16063.488
2023-02-14T14:56:21.881Z,15202.944
2023-02-14T14:58:59.934Z,14724.864
2023-02-14T15:03:50.714Z,13673.088
2023-02-14T15:08:41.402Z,12812.544
2023-02-14T15:11:40.019Z,12238.848
2023-02-14T15:14:23.239Z,11617.344
2023-02-14T15:19:24.171Z,10661.184
2023-02-14T15:26:31.392Z,8987.904
2023-02-14T15:31:31.604Z,7936.128
2023-02-14T15:34:19.851Z,7362.432
2023-02-14T15:39:44.791Z,5617.44
2023-02-14T15:43:45.560Z,2390.4
2023-02-14T15:46:23.710Z,2282.832
2023-02-14T15:49:06.910Z,2151.36
2023-02-14T15:53:01.538Z,1984.032
2023-02-14T15:58:21.608Z,1709.136
2023-02-14T16:03:21.737Z,1452.168
2023-02-14T16:08:21.914Z,1195.2
2023-02-14T16:13:21.946Z,932.256
2023-02-14T16:18:22.072Z,681.264
2023-02-14T16:23:22.165Z,463.14
2023-02-14T16:28:22.289Z,291.33
2023-02-14T16:33:22.339Z,166.581
2023-02-14T16:38:22.472Z,85.531
2023-02-14T16:43:22.595Z,39.217
2023-02-14T16:48:22.664Z,16.06
2023-02-14T16:53:22.801Z,6.349
2023-02-14T16:58:22.925Z,2.614
2023-02-14T17:06:36.688Z,0.373
2023-02-14T17:11:36.754Z,0
